Time;durP1;ratioP1;P1;durP2;ratioP2;P2;SDS_P1;SDS_P2;PMS_P1;PMS_P2;Temp;Humidity;BMP_temperature;BMP_pressure;BME280_temperature;BME280_humidity;BME280_pressure;Samples;Min_cycle;Max_cycle;Signal;HPM_P1;HPM_P2
2023/01/04 00:00:17;;;;;;;7.00;6.80;;;2.30;99.90;;;;;;5078844;28;20239;-84
2023/01/04 00:02:45;;;;;;;7.20;7.00;;;2.30;99.90;;;;;;5079299;28;20234;-83
2023/01/04 00:05:15;;;;;;;7.00;6.80;;;2.30;99.90;;;;;;5079012;28;20727;-82
2023/01/04 00:07:44;;;;;;;7.13;6.93;;;2.30;99.90;;;;;;5080432;28;20226;-83
2023/01/04 00:10:13;;;;;;;7.20;7.00;;;2.30;99.90;;;;;;5080322;28;20226;-82
2023/01/04 00:12:43;;;;;;;7.07;6.87;;;2.30;99.90;;;;;;5081975;28;20280;-83
2023/01/04 00:15:15;;;;;;;7.10;6.90;;;2.30;99.90;;;;;;5102347;28;20218;-82
2023/01/04 00:17:42;;;;;;;7.20;7.00;;;2.30;99.90;;;;;;5102208;28;20210;-80
2023/01/04 00:20:11;;;;;;;7.13;6.93;;;2.30;99.90;;;;;;5099763;28;20329;-82
2023/01/04 00:22:41;;;;;;;7.40;7.20;;;2.30;99.90;;;;;;5086170;28;20234;-82
2023/01/04 00:25:13;;;;;;;7.40;7.20;;;2.30;99.90;;;;;;5087504;28;20221;-82
2023/01/04 00:27:41;;;;;;;7.17;6.97;;;2.30;99.90;;;;;;5100747;28;20226;-82
2023/01/04 00:30:10;;;;;;;7.17;6.97;;;2.30;99.90;;;;;;5100575;28;20202;-84
2023/01/04 00:32:50;;;;;;;7.13;6.93;;;2.30;99.90;;;;;;5087621;28;20317;-84
2023/01/04 00:35:18;;;;;;;7.50;7.30;;;2.30;99.90;;;;;;5089289;28;20264;-84
2023/01/04 00:37:46;;;;;;;7.40;7.20;;;2.30;99.90;;;;;;5081101;28;20315;-83
2023/01/04 00:40:15;;;;;;;7.60;7.40;;;2.30;99.90;;;;;;5080257;28;20232;-83
2023/01/04 00:42:45;;;;;;;7.30;7.10;;;2.30;99.90;;;;;;5079217;28;20263;-84
2023/01/04 00:45:14;;;;;;;7.30;7.10;;;2.30;99.90;;;;;;5081613;28;20230;-81
2023/01/04 00:47:46;;;;;;;7.23;7.03;;;2.20;99.90;;;;;;5080793;28;20230;-85
2023/01/04 00:50:14;;;;;;;7.30;7.10;;;2.20;99.90;;;;;;5079784;28;20249;-84
2023/01/04 00:52:42;;;;;;;7.50;7.30;;;2.20;99.90;;;;;;5078911;28;20289;-84
2023/01/04 00:55:12;;;;;;;7.47;7.27;;;2.10;99.90;;;;;;5078119;28;20311;-84
2023/01/04 00:57:42;;;;;;;7.43;7.23;;;2.10;99.90;;;;;;5085129;28;20241;-85
2023/01/04 01:00:11;;;;;;;7.50;7.30;;;2.10;99.90;;;;;;5085367;28;20265;-85
2023/01/04 01:02:40;;;;;;;7.37;7.17;;;2.10;99.90;;;;;;5078706;28;20321;-85
2023/01/04 01:05:13;;;;;;;7.47;7.27;;;2.10;99.90;;;;;;5078842;28;20310;-85
2023/01/04 01:07:40;;;;;;;7.60;7.40;;;2.10;99.90;;;;;;5078949;28;20269;-85
2023/01/04 01:10:09;;;;;;;7.60;7.40;;;2.10;99.90;;;;;;5078661;28;20258;-85
2023/01/04 01:12:41;;;;;;;7.60;7.40;;;2.10;99.90;;;;;;5077794;28;20286;-85
2023/01/04 01:15:10;;;;;;;7.50;7.30;;;2.10;99.90;;;;;;5084245;28;20241;-82
2023/01/04 01:17:38;;;;;;;7.67;7.47;;;2.00;99.90;;;;;;5100630;28;20214;-84
2023/01/04 01:20:09;;;;;;;7.60;7.40;;;2.00;99.90;;;;;;5101015;28;20210;-84
2023/01/04 01:22:37;;;;;;;7.73;7.53;;;2.00;99.90;;;;;;5096280;28;20268;-85
2023/01/04 01:25:06;;;;;;;7.70;7.50;;;1.90;99.90;;;;;;5087929;28;20321;-85
2023/01/04 01:27:35;;;;;;;7.87;7.67;;;1.90;99.90;;;;;;5082230;28;20277;-84
2023/01/04 01:30:04;;;;;;;7.83;7.63;;;1.90;99.90;;;;;;5079139;28;20232;-86
2023/01/04 01:32:34;;;;;;;7.90;7.70;;;1.90;99.90;;;;;;5078948;28;20293;-85
2023/01/04 01:35:03;;;;;;;8.00;7.80;;;1.90;99.90;;;;;;5078906;28;20226;-85
2023/01/04 01:37:41;;;;;;;7.87;7.67;;;1.80;99.90;;;;;;5089032;28;20230;-84
2023/01/04 01:40:11;;;;;;;8.10;7.90;;;1.80;99.90;;;;;;5099632;28;20252;-83
2023/01/04 01:42:43;;;;;;;8.10;7.90;;;1.70;99.90;;;;;;5100000;28;20290;-83
2023/01/04 01:45:29;;;;;;;7.83;7.63;;;1.70;99.90;;;;;;5100044;28;20238;-84
2023/01/04 01:48:09;;;;;;;8.00;7.80;;;1.60;99.90;;;;;;5100480;28;20233;-83
2023/01/04 01:53:34;;;;;;;7.90;7.70;;;1.50;99.90;;;;;;5086560;28;20225;-85
2023/01/04 01:56:02;;;;;;;7.80;7.60;;;1.50;99.90;;;;;;5087508;28;20254;-85
2023/01/04 01:58:34;;;;;;;7.77;7.57;;;1.40;99.90;;;;;;5084665;28;20234;-86
2023/01/04 02:01:03;;;;;;;7.80;7.60;;;1.40;99.90;;;;;;5082417;28;20260;-85
2023/01/04 02:03:39;;;;;;;7.80;7.60;;;1.40;99.90;;;;;;5080051;28;20233;-85
2023/01/04 02:06:10;;;;;;;7.90;7.70;;;1.40;99.90;;;;;;5078649;28;20292;-85
2023/01/04 02:08:47;;;;;;;7.90;7.70;;;1.40;99.90;;;;;;5079201;28;20380;-85
2023/01/04 02:11:16;;;;;;;8.40;8.20;;;1.40;99.90;;;;;;5077659;28;20229;-85
2023/01/04 02:16:52;;;;;;;8.10;7.90;;;1.40;99.90;;;;;;5081400;28;20226;-85
2023/01/04 02:20:04;;;;;;;7.83;7.63;;;1.50;99.90;;;;;;5096883;28;20281;-83
2023/01/04 02:23:35;;;;;;;8.00;7.80;;;1.50;99.90;;;;;;5098771;28;20244;-84
2023/01/04 02:26:48;;;;;;;7.90;7.70;;;1.60;99.90;;;;;;5026967;28;20358;-85
2023/01/04 02:30:01;;;;;;;7.90;7.70;;;1.60;99.90;;;;;;5080057;28;20226;-84
2023/01/04 02:32:48;;;;;;;7.83;7.63;;;1.70;99.90;;;;;;5078656;28;20222;-84
2023/01/04 02:35:26;;;;;;;7.73;7.53;;;1.70;99.90;;;;;;5076856;28;20236;-85
2023/01/04 02:38:05;;;;;;;7.70;7.50;;;1.80;99.90;;;;;;5081665;28;20313;-84
2023/01/04 02:40:45;;;;;;;7.70;7.50;;;1.80;99.90;;;;;;5077180;28;20336;-84
2023/01/04 02:46:18;;;;;;;7.63;7.43;;;1.90;99.90;;;;;;5077565;28;20229;-84
2023/01/04 02:51:37;;;;;;;7.80;7.60;;;2.00;99.90;;;;;;5079667;28;20291;-84
2023/01/04 02:54:12;;;;;;;7.90;7.70;;;2.00;99.90;;;;;;5086796;28;20269;-84
2023/01/04 02:57:07;;;;;;;8.00;7.80;;;2.00;99.90;;;;;;5089183;28;20253;-85
2023/01/04 03:00:03;;;;;;;7.77;7.57;;;2.00;99.90;;;;;;5082851;28;20242;-83
2023/01/04 03:09:08;;;;;;;7.60;7.40;;;2.10;99.90;;;;;;5080389;28;20225;-85
2023/01/04 03:14:28;;;;;;;7.80;7.60;;;2.10;99.90;;;;;;5055237;28;21045;-84
2023/01/04 03:16:56;;;;;;;7.80;7.60;;;2.10;99.90;;;;;;5100805;28;20249;-84
2023/01/04 03:36:35;;;;;;;8.00;7.80;;;2.30;99.90;;;;;;5100827;28;20593;-84
2023/01/04 03:50:39;;;;;;;7.73;7.53;;;2.60;99.90;;;;;;5112867;28;20189;-84
2023/01/04 03:53:08;;;;;;;7.77;7.57;;;2.60;99.90;;;;;;5121803;28;20270;-83
2023/01/04 03:55:47;;;;;;;7.70;7.50;;;2.60;99.90;;;;;;5122010;28;20284;-84
2023/01/04 03:58:15;;;;;;;7.67;7.47;;;2.70;99.90;;;;;;5122422;28;20239;-84
2023/01/04 04:00:44;;;;;;;7.80;7.60;;;2.70;99.90;;;;;;5103127;28;20252;-84
2023/01/04 04:03:14;;;;;;;7.83;7.63;;;2.80;99.90;;;;;;5105454;28;20252;-83
2023/01/04 04:08:31;;;;;;;7.77;7.57;;;2.80;99.90;;;;;;5122635;28;20213;-85
2023/01/04 04:13:47;;;;;;;7.50;7.30;;;2.90;99.90;;;;;;5105822;28;20225;-85
2023/01/04 04:16:16;;;;;;;7.30;7.10;;;2.90;99.90;;;;;;5104653;28;20244;-84
2023/01/04 04:18:46;;;;;;;7.33;7.13;;;3.00;99.90;;;;;;5116927;28;20253;-85
2023/01/04 04:21:16;;;;;;;7.30;7.10;;;3.00;99.90;;;;;;5122910;28;20237;-83
2023/01/04 04:23:45;;;;;;;7.50;7.30;;;3.00;99.90;;;;;;5121511;28;20198;-84
2023/01/04 04:26:17;;;;;;;7.30;7.10;;;3.00;99.90;;;;;;5102212;28;20341;-84
2023/01/04 04:28:45;;;;;;;7.10;6.90;;;3.00;99.90;;;;;;5100185;28;21057;-85
2023/01/04 04:31:13;;;;;;;7.40;7.20;;;3.10;99.90;;;;;;5099966;28;20248;-85
2023/01/04 04:33:42;;;;;;;6.90;6.70;;;3.10;99.90;;;;;;5099774;28;20230;-85
2023/01/04 04:36:12;;;;;;;7.07;6.87;;;3.10;99.90;;;;;;5099618;28;20292;-85
2023/01/04 04:38:41;;;;;;;6.90;6.70;;;3.10;99.90;;;;;;5099864;28;20225;-85
2023/01/04 04:44:06;;;;;;;6.90;6.70;;;3.10;99.90;;;;;;5100485;28;20218;-84
2023/01/04 04:46:36;;;;;;;7.07;6.87;;;3.20;99.90;;;;;;5099622;28;20229;-84
2023/01/04 04:49:06;;;;;;;6.90;6.70;;;3.20;99.90;;;;;;5100174;28;20312;-85
2023/01/04 04:51:35;;;;;;;6.87;6.67;;;3.20;99.90;;;;;;5112763;28;20217;-83
2023/01/04 04:54:04;;;;;;;6.70;6.50;;;3.20;99.90;;;;;;5113631;28;20248;-85
2023/01/04 04:56:35;;;;;;;6.70;6.50;;;3.30;99.90;;;;;;5118421;22;20261;-82
2023/01/04 04:59:06;;;;;;;7.00;6.80;;;3.30;99.90;;;;;;5110522;28;20277;-82
2023/01/04 05:01:34;;;;;;;7.17;6.97;;;3.30;99.90;;;;;;5102300;28;20399;-83
2023/01/04 05:04:02;;;;;;;7.10;6.90;;;3.30;99.90;;;;;;5109790;28;20244;-83
2023/01/04 05:06:31;;;;;;;6.80;6.60;;;3.40;99.90;;;;;;5116172;28;20239;-80
2023/01/04 05:09:01;;;;;;;6.70;6.50;;;3.40;99.90;;;;;;5108768;28;20226;-81
2023/01/04 05:14:28;;;;;;;6.90;6.70;;;3.40;99.90;;;;;;5089028;28;20203;-81
2023/01/04 05:16:55;;;;;;;6.70;6.50;;;3.40;99.90;;;;;;5086697;28;20261;-81
2023/01/04 05:19:25;;;;;;;6.40;6.20;;;3.50;99.90;;;;;;5085722;28;20230;-81
2023/01/04 05:21:54;;;;;;;6.50;6.30;;;3.50;99.90;;;;;;5086036;28;20257;-81
2023/01/04 05:24:24;;;;;;;6.67;6.47;;;3.50;99.90;;;;;;5085102;28;20362;-81
2023/01/04 05:26:53;;;;;;;6.77;6.57;;;3.50;99.90;;;;;;5085820;28;20290;-81
2023/01/04 05:32:11;;;;;;;6.70;6.50;;;3.50;99.90;;;;;;5100288;28;20217;-81
2023/01/04 05:34:39;;;;;;;6.60;6.40;;;3.50;99.90;;;;;;5096151;28;20288;-80
2023/01/04 05:37:11;;;;;;;6.50;6.30;;;3.50;99.90;;;;;;5100539;28;20229;-81
2023/01/04 05:39:43;;;;;;;6.53;6.33;;;3.50;99.90;;;;;;5095012;28;20233;-81
2023/01/04 05:42:26;;;;;;;6.47;6.27;;;3.50;99.90;;;;;;5103398;27;20226;-81
2023/01/04 05:45:06;;;;;;;6.40;6.20;;;3.60;99.90;;;;;;5104046;28;20214;-81
2023/01/04 05:47:35;;;;;;;6.60;6.40;;;3.50;99.90;;;;;;5103620;28;20244;-81
2023/01/04 05:50:04;;;;;;;6.50;6.30;;;3.50;99.90;;;;;;5103659;28;20233;-81
2023/01/04 05:52:33;;;;;;;6.70;6.50;;;3.50;99.90;;;;;;5103161;28;20697;-81
2023/01/04 05:55:03;;;;;;;6.57;6.37;;;3.60;99.90;;;;;;5102847;28;20221;-81
2023/01/04 05:57:34;;;;;;;6.90;6.70;;;3.60;99.90;;;;;;5103789;28;20272;-83
2023/01/04 06:00:12;;;;;;;6.70;6.50;;;3.60;99.90;;;;;;5103460;28;20233;-80
2023/01/04 06:02:40;;;;;;;6.60;6.40;;;3.60;99.90;;;;;;5102633;28;20241;-81
2023/01/04 06:05:10;;;;;;;6.77;6.57;;;3.60;99.90;;;;;;5103268;28;20287;-81
2023/01/04 06:07:39;;;;;;;6.83;6.63;;;3.60;99.90;;;;;;5102637;28;20229;-81
2023/01/04 06:10:11;;;;;;;6.67;6.47;;;3.60;99.90;;;;;;5102570;28;20273;-81
2023/01/04 06:12:40;;;;;;;6.90;6.70;;;3.60;99.90;;;;;;5102298;28;20324;-81
2023/01/04 06:15:16;;;;;;;6.60;6.40;;;3.60;99.90;;;;;;5102264;28;20210;-80
2023/01/04 06:17:45;;;;;;;6.60;6.40;;;3.70;99.90;;;;;;5103038;28;20267;-82
2023/01/04 06:20:15;;;;;;;6.77;6.57;;;3.70;99.90;;;;;;5101736;28;20261;-82
2023/01/04 06:22:44;;;;;;;6.70;6.50;;;3.80;99.90;;;;;;5101946;28;20233;-82
2023/01/04 06:25:14;;;;;;;6.80;6.60;;;3.80;99.90;;;;;;5101808;28;20230;-81
2023/01/04 06:27:43;;;;;;;6.80;6.60;;;3.90;99.90;;;;;;5105639;28;20293;-82
2023/01/04 06:33:00;;;;;;;6.70;6.50;;;3.90;99.90;;;;;;5104232;28;20226;-82
2023/01/04 06:35:38;;;;;;;6.80;6.60;;;3.90;99.90;;;;;;5105202;28;20256;-81
2023/01/04 06:38:07;;;;;;;6.80;6.60;;;3.90;99.90;;;;;;5106483;28;20233;-82
2023/01/04 06:40:38;;;;;;;6.60;6.40;;;3.90;99.90;;;;;;5106538;28;20233;-82
2023/01/04 06:43:06;;;;;;;6.70;6.50;;;3.80;99.90;;;;;;5106240;28;20225;-84
2023/01/04 06:45:39;;;;;;;6.50;6.30;;;3.90;99.90;;;;;;5106566;28;20269;-82
2023/01/04 06:48:07;;;;;;;6.60;6.40;;;3.80;99.90;;;;;;5106260;28;20226;-81
2023/01/04 06:50:37;;;;;;;6.80;6.60;;;3.90;99.90;;;;;;5105433;28;20229;-81
2023/01/04 06:53:05;;;;;;;6.97;6.77;;;3.90;99.90;;;;;;5105297;28;20221;-82
2023/01/04 06:55:34;;;;;;;7.03;6.83;;;3.90;99.90;;;;;;5105443;28;20411;-82
2023/01/04 06:58:04;;;;;;;6.63;6.43;;;3.80;99.90;;;;;;5105451;28;20229;-82
2023/01/04 07:00:33;;;;;;;6.50;6.30;;;3.80;99.90;;;;;;5105144;28;20241;-81
2023/01/04 07:03:11;;;;;;;6.30;6.10;;;3.90;99.90;;;;;;5106160;28;20238;-82
2023/01/04 07:05:42;;;;;;;6.30;6.10;;;3.90;99.90;;;;;;5104974;28;20277;-81
2023/01/04 07:08:10;;;;;;;6.33;6.13;;;3.90;99.90;;;;;;5105538;28;20233;-82
2023/01/04 07:10:39;;;;;;;6.70;6.50;;;4.00;99.90;;;;;;5092720;28;20261;-82
2023/01/04 07:13:08;;;;;;;6.60;6.40;;;4.00;99.90;;;;;;5101847;28;20222;-82
2023/01/04 07:15:39;;;;;;;6.50;6.30;;;4.00;99.90;;;;;;5099297;28;20278;-82
2023/01/04 07:18:16;;;;;;;6.80;6.60;;;4.10;99.90;;;;;;5096658;28;20289;-81
2023/01/04 07:20:46;;;;;;;6.80;6.60;;;4.10;99.90;;;;;;5099520;28;20252;-82
2023/01/04 07:23:16;;;;;;;6.03;5.93;;;4.10;99.90;;;;;;5106327;28;20276;-82
2023/01/04 07:25:44;;;;;;;5.90;5.80;;;4.20;99.90;;;;;;5105929;28;20230;-82
2023/01/04 07:29:13;;;;;;;6.60;6.40;;;4.20;99.90;;;;;;5106663;28;20400;-86
2023/01/04 07:31:09;;;;;;;6.43;6.23;;;4.20;99.90;;;;;;5098021;28;20233;-84
2023/01/04 07:33:48;;;;;;;6.50;6.30;;;4.30;99.90;;;;;;5089233;28;20222;-83
2023/01/04 07:36:17;;;;;;;6.40;6.20;;;4.40;99.90;;;;;;5088239;28;20234;-83
2023/01/04 07:38:47;;;;;;;6.53;6.33;;;4.40;99.90;;;;;;5098387;28;20540;-82
2023/01/04 07:41:18;;;;;;;6.80;6.60;;;4.40;99.90;;;;;;5091156;28;20261;-83
2023/01/04 07:43:48;;;;;;;6.60;6.40;;;4.40;99.90;;;;;;5084465;28;20236;-83
2023/01/04 07:46:17;;;;;;;6.87;6.67;;;4.40;99.90;;;;;;5083301;28;20303;-83
2023/01/04 07:48:56;;;;;;;6.80;6.60;;;4.40;99.90;;;;;;5084585;28;20278;-83
2023/01/04 07:51:25;;;;;;;6.63;6.43;;;4.50;99.90;;;;;;5083854;28;20233;-84
2023/01/04 07:53:55;;;;;;;6.70;6.50;;;4.40;99.90;;;;;;5084875;28;20226;-83
2023/01/04 07:56:26;;;;;;;6.40;6.20;;;4.50;99.90;;;;;;5105087;22;20225;-83
2023/01/04 07:58:58;;;;;;;6.53;6.33;;;4.50;99.90;;;;;;5105866;28;20229;-82
2023/01/04 08:01:31;;;;;;;6.10;6.00;;;4.50;99.90;;;;;;5103894;28;20232;-81
2023/01/04 08:04:10;;;;;;;6.50;6.30;;;4.60;99.90;;;;;;5106617;28;20222;-82
2023/01/04 08:06:41;;;;;;;6.70;6.50;;;4.50;99.90;;;;;;5110078;28;20269;-83
2023/01/04 08:11:55;;;;;;;6.50;6.30;;;4.60;99.90;;;;;;5109512;28;20233;-81
2023/01/04 08:14:27;;;;;;;6.50;6.30;;;4.60;99.90;;;;;;5108257;28;20241;-81
2023/01/04 08:16:54;;;;;;;6.80;6.60;;;4.70;99.90;;;;;;5109374;28;20229;-81
2023/01/04 08:19:32;;;;;;;6.60;6.40;;;4.70;99.90;;;;;;5108146;28;20229;-82
2023/01/04 08:22:03;;;;;;;6.83;6.63;;;4.80;99.90;;;;;;5109826;28;20236;-82
2023/01/04 08:24:31;;;;;;;6.53;6.33;;;4.80;99.90;;;;;;5110586;28;20305;-82
2023/01/04 08:27:00;;;;;;;6.70;6.50;;;4.90;99.90;;;;;;5111360;28;20277;-82
2023/01/04 08:29:30;;;;;;;6.70;6.50;;;4.90;99.90;;;;;;5121452;28;20242;-81
2023/01/04 08:31:59;;;;;;;6.50;6.30;;;4.90;99.90;;;;;;5116310;28;20299;-82
2023/01/04 08:34:38;;;;;;;6.50;6.30;;;4.90;99.90;;;;;;5111122;28;20242;-82
2023/01/04 08:37:07;;;;;;;6.73;6.53;;;5.00;99.90;;;;;;5115041;28;20244;-82
2023/01/04 08:39:39;;;;;;;6.70;6.50;;;5.00;99.90;;;;;;5109060;28;20252;-82
2023/01/04 08:42:09;;;;;;;6.93;6.73;;;5.00;99.90;;;;;;5111669;28;20275;-82
2023/01/04 08:44:37;;;;;;;7.00;6.80;;;5.10;99.90;;;;;;5118066;28;20230;-81
2023/01/04 08:47:05;;;;;;;7.00;6.80;;;5.10;99.90;;;;;;5110562;28;20245;-82
2023/01/04 08:49:37;;;;;;;6.77;6.57;;;5.20;99.90;;;;;;5114409;28;20241;-82
2023/01/04 08:52:05;;;;;;;7.10;6.90;;;5.30;99.90;;;;;;5115021;28;20260;-83
2023/01/04 08:54:33;;;;;;;7.07;6.87;;;5.40;99.90;;;;;;5111340;28;20609;-82
2023/01/04 08:57:03;;;;;;;7.00;6.80;;;5.40;99.90;;;;;;5110459;28;20234;-81
2023/01/04 09:05:50;;;;;;;7.20;7.00;;;5.60;99.90;;;;;;5094043;27;20233;-83
2023/01/04 09:08:19;;;;;;;7.00;6.80;;;5.70;99.90;;;;;;5104639;28;20224;-83
2023/01/04 09:10:49;;;;;;;7.03;6.83;;;5.70;99.90;;;;;;5106214;28;20285;-85
2023/01/04 09:13:18;;;;;;;7.20;7.00;;;5.80;99.90;;;;;;5108044;28;20252;-84
2023/01/04 09:15:56;;;;;;;7.10;6.90;;;5.80;99.90;;;;;;5107812;28;20225;-84
2023/01/04 09:18:26;;;;;;;7.40;7.20;;;5.90;99.90;;;;;;5111262;28;20289;-84
2023/01/04 09:21:06;;;;;;;7.30;7.10;;;5.90;99.90;;;;;;5111686;28;20238;-83
2023/01/04 09:23:34;;;;;;;7.70;7.50;;;6.00;99.90;;;;;;5115141;28;20239;-83
2023/01/04 09:26:06;;;;;;;7.60;7.40;;;6.10;99.90;;;;;;5117672;28;20289;-84
2023/01/04 09:28:33;;;;;;;7.87;7.67;;;6.20;99.90;;;;;;5109688;28;20245;-84
2023/01/04 09:33:49;;;;;;;8.60;8.40;;;6.40;99.90;;;;;;5108957;28;20253;-84
2023/01/04 09:36:28;;;;;;;8.70;8.50;;;6.50;99.90;;;;;;5108860;28;20237;-85
2023/01/04 09:38:57;;;;;;;8.70;8.50;;;6.70;99.90;;;;;;5106490;28;20261;-83
2023/01/04 09:41:30;;;;;;;9.37;9.07;;;6.80;99.90;;;;;;5106327;27;20241;-83
2023/01/04 09:44:29;;;;;;;;;;;;;;;;;;;;;
2023/01/04 09:51:12;;;;;;;9.20;8.90;;;7.00;99.90;;;;;;5100931;28;20322;-84
2023/01/04 09:57:44;;;;;;;8.87;8.67;;;7.20;99.90;;;;;;5040924;28;20241;-84
2023/01/04 10:08:29;;;;;;;8.93;8.73;;;7.50;99.90;;;;;;5103731;22;20233;-85
2023/01/04 10:11:39;;;;;;;8.80;8.60;;;7.60;99.90;;;;;;5079794;28;20226;-85
2023/01/04 10:15:12;;;;;;;9.20;8.90;;;7.70;99.90;;;;;;5075216;28;20229;-84
2023/01/04 10:21:45;;;;;;;9.27;8.97;;;7.80;99.90;;;;;;4993593;28;20242;-84
2023/01/04 10:24:51;;;;;;;9.10;8.80;;;7.80;99.90;;;;;;5067197;28;20281;-88
2023/01/04 10:38:45;;;;;;;8.90;8.70;;;7.80;99.90;;;;;;5024775;28;20218;-90
2023/01/04 10:41:33;;;;;;;9.30;9.00;;;7.80;99.90;;;;;;5062291;28;20261;-83
2023/01/04 10:44:14;;;;;;;8.97;8.73;;;7.80;99.90;;;;;;5063032;28;20254;-84
2023/01/04 10:50:14;;;;;;;9.07;8.77;;;7.80;99.90;;;;;;5068183;28;20290;-84
2023/01/04 10:52:51;;;;;;;8.97;8.70;;;7.90;99.90;;;;;;5063701;28;20227;-83
2023/01/04 10:55:30;;;;;;;8.73;8.53;;;7.90;99.90;;;;;;5065072;28;20207;-84
2023/01/04 10:58:03;;;;;;;9.07;8.77;;;7.90;99.90;;;;;;5123056;23;20260;-79
2023/01/04 11:00:37;;;;;;;8.93;8.70;;;8.00;99.90;;;;;;5089939;28;20249;-78
2023/01/04 11:03:11;;;;;;;9.37;9.07;;;8.00;99.90;;;;;;5090278;28;20320;-78
2023/01/04 11:05:43;;;;;;;9.37;9.07;;;8.10;99.90;;;;;;5086579;28;20233;-78
2023/01/04 11:08:16;;;;;;;9.40;9.10;;;8.10;99.90;;;;;;5098901;28;20272;-78
2023/01/04 11:10:52;;;;;;;9.30;9.00;;;8.10;99.90;;;;;;5108627;28;20285;-79
2023/01/04 11:13:19;;;;;;;9.13;8.83;;;8.20;99.90;;;;;;5111438;28;20323;-78
2023/01/04 11:15:47;;;;;;;9.30;9.00;;;8.30;99.90;;;;;;5103064;28;20224;-78
2023/01/04 11:18:16;;;;;;;9.47;9.17;;;8.30;99.90;;;;;;5106385;28;20234;-79
2023/01/04 11:20:44;;;;;;;9.43;9.13;;;8.40;99.90;;;;;;5105199;28;20293;-79
2023/01/04 11:23:15;;;;;;;9.60;9.30;;;8.40;99.90;;;;;;5102453;28;20327;-78
2023/01/04 11:25:50;;;;;;;9.27;8.97;;;8.40;99.90;;;;;;5106323;28;20229;-78
2023/01/04 11:28:23;;;;;;;9.20;8.90;;;8.50;99.90;;;;;;5119608;28;20297;-78
2023/01/04 11:30:59;;;;;;;8.70;8.50;;;8.50;99.90;;;;;;5108900;28;20248;-78
2023/01/04 11:33:27;;;;;;;9.40;9.10;;;8.60;99.90;;;;;;5094801;28;20262;-79
2023/01/04 11:35:58;;;;;;;9.47;9.17;;;8.60;99.90;;;;;;5102346;28;20221;-79
2023/01/04 11:38:28;;;;;;;9.47;9.17;;;8.70;99.90;;;;;;5101297;28;20252;-78
2023/01/04 11:41:04;;;;;;;9.30;9.00;;;8.70;99.90;;;;;;5100799;28;20299;-79
2023/01/04 11:43:33;;;;;;;8.80;8.60;;;8.70;99.90;;;;;;5101878;28;20310;-78
2023/01/04 11:46:05;;;;;;;8.70;8.50;;;8.70;99.90;;;;;;5101522;28;20225;-79
2023/01/04 11:48:42;;;;;;;8.70;8.50;;;8.80;99.90;;;;;;5102509;28;20260;-78
2023/01/04 11:51:38;;;;;;;8.47;8.27;;;8.80;99.90;;;;;;5101554;28;20236;-79
2023/01/04 11:54:19;;;;;;;8.50;8.30;;;8.90;99.90;;;;;;5085143;28;20249;-81
2023/01/04 11:57:05;;;;;;;8.80;8.60;;;8.90;99.90;;;;;;5083074;28;20233;-79
2023/01/04 11:59:33;;;;;;;8.70;8.50;;;9.00;99.90;;;;;;5081965;28;20260;-80
2023/01/04 12:02:22;;;;;;;8.80;8.60;;;9.00;99.90;;;;;;5081025;28;20234;-79
2023/01/04 12:04:53;;;;;;;8.90;8.70;;;9.10;99.90;;;;;;5082672;28;20242;-79
2023/01/04 12:07:30;;;;;;;9.17;8.87;;;9.10;99.90;;;;;;5080847;28;20234;-79
2023/01/04 12:10:00;;;;;;;8.90;8.70;;;9.10;99.90;;;;;;5083021;28;20234;-78
2023/01/04 12:12:33;;;;;;;8.97;8.77;;;9.10;99.90;;;;;;5088964;28;20229;-79
2023/01/04 12:15:07;;;;;;;8.80;8.60;;;9.20;99.90;;;;;;5102763;28;20328;-79
2023/01/04 12:17:48;;;;;;;9.00;8.80;;;9.20;99.90;;;;;;5099963;28;20222;-79
2023/01/04 12:20:18;;;;;;;9.30;9.00;;;9.20;99.90;;;;;;5098170;28;20233;-80
2023/01/04 12:22:46;;;;;;;8.60;8.40;;;9.30;99.90;;;;;;5098425;28;20249;-79
2023/01/04 12:25:31;;;;;;;8.63;8.43;;;9.30;99.90;;;;;;5082514;28;20230;-80
2023/01/04 12:28:00;;;;;;;8.90;8.70;;;9.30;99.90;;;;;;5081178;28;20237;-79
2023/01/04 12:30:40;;;;;;;9.30;9.00;;;9.40;99.90;;;;;;5085882;28;20265;-79
2023/01/04 12:33:40;;;;;;;9.40;9.10;;;9.40;99.90;;;;;;5098277;28;20233;-80
2023/01/04 12:36:10;;;;;;;9.00;8.80;;;9.40;99.90;;;;;;5101504;28;20226;-79
2023/01/04 12:39:27;;;;;;;9.10;8.80;;;9.50;99.90;;;;;;5103519;28;20223;-80
2023/01/04 12:42:27;;;;;;;9.00;8.80;;;9.50;99.90;;;;;;5114047;28;20217;-80
2023/01/04 12:45:16;;;;;;;8.13;7.93;;;9.60;99.90;;;;;;5113420;28;20241;-79
2023/01/04 12:50:31;;;;;;;8.13;7.93;;;9.70;99.90;;;;;;5119737;28;20202;-81
2023/01/04 12:53:04;;;;;;;8.60;8.40;;;9.80;99.90;;;;;;5115305;28;20225;-81
2023/01/04 12:55:55;;;;;;;8.30;8.10;;;9.80;99.90;;;;;;5112413;28;20233;-79
2023/01/04 12:59:12;;;;;;;8.57;8.37;;;9.80;99.90;;;;;;5117580;28;20230;-79
2023/01/04 13:02:19;;;;;;;9.10;8.83;;;9.80;99.90;;;;;;5118406;28;20197;-80
2023/01/04 13:04:47;;;;;;;9.20;8.90;;;9.80;99.90;;;;;;5115623;28;20236;-80
2023/01/04 13:07:22;;;;;;;8.80;8.60;;;9.80;99.90;;;;;;5115726;28;20237;-79
2023/01/04 13:09:55;;;;;;;8.63;8.43;;;9.80;99.90;;;;;;5117569;28;20213;-80
2023/01/04 13:12:56;;;;;;;8.70;8.50;;;9.80;99.90;;;;;;5118960;28;20225;-80
2023/01/04 13:15:35;;;;;;;8.70;8.50;;;9.80;99.90;;;;;;5115816;28;20269;-80
2023/01/04 13:18:24;;;;;;;8.50;8.30;;;9.80;99.90;;;;;;5112777;28;20240;-79
2023/01/04 13:20:52;;;;;;;8.50;8.30;;;9.80;99.90;;;;;;5109155;28;20253;-80
2023/01/04 13:23:20;;;;;;;8.90;8.70;;;9.80;99.90;;;;;;5101292;28;20243;-80
2023/01/04 13:25:47;;;;;;;9.03;8.80;;;9.80;99.90;;;;;;5099921;28;20289;-81
2023/01/04 13:28:18;;;;;;;8.40;8.20;;;9.80;99.90;;;;;;5100451;28;20243;-79
2023/01/04 13:30:46;;;;;;;8.60;8.40;;;9.90;99.90;;;;;;5101809;28;20229;-80
2023/01/04 13:33:19;;;;;;;8.80;8.60;;;9.90;99.90;;;;;;5102544;28;20267;-79
2023/01/04 13:36:02;;;;;;;9.27;8.97;;;9.90;99.90;;;;;;5098650;28;20240;-79
2023/01/04 13:38:33;;;;;;;8.93;8.73;;;9.90;99.90;;;;;;5087928;28;20229;-80
2023/01/04 13:41:01;;;;;;;9.23;8.93;;;9.90;99.90;;;;;;5088654;28;20706;-80
2023/01/04 13:43:53;;;;;;;9.00;8.80;;;9.90;99.90;;;;;;5093992;28;20253;-79
2023/01/04 13:46:23;;;;;;;9.07;8.80;;;9.90;99.90;;;;;;5084252;28;20288;-81
2023/01/04 13:48:59;;;;;;;8.60;8.40;;;9.90;99.90;;;;;;5081598;28;20320;-80
2023/01/04 13:51:35;;;;;;;8.77;8.57;;;9.90;99.90;;;;;;5091167;28;20220;-80
2023/01/04 13:54:06;;;;;;;9.10;8.80;;;9.90;99.90;;;;;;5098748;28;20236;-81
2023/01/04 13:56:35;;;;;;;8.73;8.53;;;9.80;99.90;;;;;;5098928;28;20222;-80
2023/01/04 13:59:02;;;;;;;8.93;8.73;;;9.80;99.90;;;;;;5098972;28;20205;-79
2023/01/04 14:01:33;;;;;;;8.90;8.70;;;9.80;99.90;;;;;;5107303;28;20277;-80
2023/01/04 14:04:04;;;;;;;9.10;8.83;;;9.90;99.90;;;;;;5119075;28;20257;-79
2023/01/04 14:06:35;;;;;;;9.13;8.83;;;9.90;99.90;;;;;;5115302;28;20272;-80
2023/01/04 14:09:07;;;;;;;9.20;8.90;;;9.90;99.90;;;;;;5107120;28;20233;-80
2023/01/04 14:12:01;;;;;;;9.33;9.03;;;9.90;99.90;;;;;;5118983;28;20223;-79
2023/01/04 14:14:39;;;;;;;9.20;8.90;;;9.90;99.90;;;;;;5119631;28;20273;-79
2023/01/04 14:17:27;;;;;;;9.20;8.90;;;10.00;99.90;;;;;;5116286;28;20236;-80
2023/01/04 14:19:59;;;;;;;9.50;9.20;;;10.00;99.90;;;;;;5094598;28;20285;-80
2023/01/04 14:22:40;;;;;;;9.50;9.20;;;10.00;99.90;;;;;;5094917;28;20218;-80
2023/01/04 14:25:47;;;;;;;9.50;9.20;;;10.00;99.90;;;;;;5102349;28;20268;-80
2023/01/04 14:28:38;;;;;;;9.23;8.93;;;10.00;99.90;;;;;;5088300;28;20233;-80
2023/01/04 14:31:31;;;;;;;9.00;8.80;;;10.00;99.90;;;;;;5093928;28;20332;-80
2023/01/04 14:33:58;;;;;;;8.73;8.53;;;10.00;99.90;;;;;;5103525;28;20260;-80
2023/01/04 14:36:31;;;;;;;9.20;8.90;;;10.00;99.90;;;;;;5100237;28;20312;-81
2023/01/04 14:39:19;;;;;;;9.50;9.20;;;10.10;99.90;;;;;;5101123;28;20229;-80
2023/01/04 14:41:58;;;;;;;9.40;9.10;;;10.00;99.90;;;;;;5101406;28;20285;-80
2023/01/04 14:44:29;;;;;;;9.17;8.87;;;10.00;99.90;;;;;;5099593;28;20229;-79
2023/01/04 14:47:04;;;;;;;9.00;8.73;;;10.10;99.90;;;;;;5102471;28;20229;-79
2023/01/04 14:49:32;;;;;;;9.50;9.20;;;10.10;99.90;;;;;;5104781;28;20229;-79
2023/01/04 14:52:03;;;;;;;9.17;8.87;;;10.00;99.90;;;;;;5104757;28;20237;-80
2023/01/04 14:54:33;;;;;;;9.47;9.17;;;10.00;99.90;;;;;;5100990;28;20320;-80
2023/01/04 14:57:03;;;;;;;9.10;8.80;;;10.10;99.90;;;;;;5103556;28;20240;-81
2023/01/04 14:59:31;;;;;;;9.50;9.20;;;10.00;99.90;;;;;;5105815;28;20256;-79
2023/01/04 15:02:00;;;;;;;9.60;9.30;;;10.00;99.90;;;;;;5104787;28;20260;-79
2023/01/04 15:04:28;;;;;;;9.37;9.07;;;10.00;99.90;;;;;;5106103;28;20233;-80
2023/01/04 15:06:58;;;;;;;9.40;9.10;;;10.00;99.90;;;;;;5111089;28;20233;-79
2023/01/04 15:09:29;;;;;;;8.83;8.63;;;10.00;99.90;;;;;;5091541;28;20245;-78
2023/01/04 15:12:00;;;;;;;9.10;8.80;;;10.00;99.90;;;;;;5086621;28;20258;-79
2023/01/04 15:14:28;;;;;;;8.77;8.57;;;9.90;99.90;;;;;;5083288;28;20245;-80
2023/01/04 15:16:57;;;;;;;8.60;8.40;;;9.90;99.90;;;;;;5083517;28;20234;-79
2023/01/04 15:19:25;;;;;;;8.60;8.40;;;9.90;99.90;;;;;;5083860;28;20226;-80
2023/01/04 15:21:56;;;;;;;8.80;8.60;;;9.90;99.90;;;;;;5081867;28;20258;-79
2023/01/04 15:24:23;;;;;;;7.37;7.17;;;9.80;99.90;;;;;;5083891;28;20280;-79
2023/01/04 15:26:52;;;;;;;7.57;7.37;;;9.70;99.90;;;;;;5084639;28;20316;-79
2023/01/04 15:29:20;;;;;;;8.00;7.80;;;9.70;99.90;;;;;;5085156;28;20230;-79